This is the latest recevied weather packets stored in our database for station/object AG1T-20. If no packets are shown the sender has not sent any weather packets the latest 10 day(s).
| Time | Temp. | Humidity | Pressure | Rain* | Wind** | Luminosity | Snow |
|---|---|---|---|---|---|---|---|
| 1787611205 | 32.78° C | 22% | 1020.8 hPa | 0 mm | - | 122 W/m² | - |
| 1787610605 | 33.89° C | 23% | 1020.8 hPa | 0 mm | - | 365 W/m² | - |
| 1787610005 | 33.89° C | 23% | 1020.8 hPa | 0 mm | - | 395 W/m² | - |
| 1787609405 | 33.33° C | 22% | 1020.8 hPa | 0 mm | - | 368 W/m² | - |
| 1787608804 | 33.89° C | 22% | 1020.8 hPa | 0 mm | - | 407 W/m² | - |
| 1787608205 | 33.33° C | 23% | 1021.5 hPa | 0 mm | - | 494 W/m² | - |
| 1787607605 | 33.33° C | 24% | 1021.5 hPa | 0 mm | - | 517 W/m² | - |
| 1787607004 | 33.33° C | 26% | 1021.5 hPa | 0 mm | - | 521 W/m² | - |
| 1787606405 | 33.33° C | 27% | 1021.5 hPa | 0 mm | - | 584 W/m² | - |
| 1787605804 | 32.78° C | 28% | 1021.5 hPa | 0 mm | - | 555 W/m² | - |
| 1787605204 | 32.78° C | 27% | 1021.5 hPa | 0 mm | - | 592 W/m² | - |
| 1787604605 | 31.67° C | 27% | 1022.1 hPa | 0 mm | - | 612 W/m² | - |
| 1787604005 | 31.67° C | 28% | 1022.1 hPa | 0 mm | - | 659 W/m² | - |
| 1787603405 | 31.67° C | 28% | 1022.1 hPa | 0 mm | - | 666 W/m² | - |
| 1787602804 | 31.67° C | 29% | 1022.1 hPa | 0 mm | - | 701 W/m² | - |
| 1787602205 | 31.67° C | 29% | 1022.1 hPa | 0 mm | - | 723 W/m² | - |
| 1787601605 | 31.11° C | 33% | 1022.1 hPa | 0 mm | - | 741 W/m² | - |
| 1787601005 | 30.56° C | 30% | 1022.8 hPa | 0 mm | - | 762 W/m² | - |
| 1787600405 | 30° C | 34% | 1022.8 hPa | 0 mm | - | 778 W/m² | - |
| 1787599804 | 30° C | 38% | 1022.8 hPa | 0 mm | - | 793 W/m² | - |
| 1787599204 | 29.44° C | 37% | 1022.8 hPa | 0 mm | - | 813 W/m² | - |
| 1787598604 | 29.44° C | 37% | 1022.8 hPa | 0 mm | - | 837 W/m² | - |
| 1787598005 | 28.89° C | 38% | 1022.8 hPa | 0 mm | - | 841 W/m² | - |
| 1787597405 | 27.78° C | 40% | 1023.5 hPa | 0 mm | - | 853 W/m² | - |
| 1787596804 | 27.78° C | 42% | 1023.5 hPa | 0 mm | - | 853 W/m² | - |
* Rain latest hour (hover to see other rain measurements)
** Current wind speed in m/s (hover to see current wind gust speed)